Aviation Digital Data Service (ADDS)

Output produced by METARs form (1348 UTC 23 January 2019)
found at http://www.aviationweather.gov/metar/data/
 
METAR text: YSSY 231330Z 20014KT 9999 FEW017 BKN022 23/20 Q1015 NOSIG
Conditions at: YSSY (SYDNEY INTL AIRP, AU) observed 1330 UTC 23 January 2019
Temperature: 23.0°C (73°F)
Dewpoint: 20.0°C (68°F) [RH = 83%]
Pressure (altimeter): 29.97 inches Hg (1015.0 mb)
Winds: from the SSW (200 degrees) at 16 MPH (14 knots; 7.2 m/s)
Visibility: 6 or more miles (10+ km)
Ceiling: 2200 feet AGL
Clouds: few clouds at 1700 feet AGL
broken clouds at 2200 feet AGL
Weather: no significant weather observed at this time

METAR text: YSSY 231300Z 19014KT 9999 FEW017 BKN022 23/19 Q1015 NOSIG
Conditions at: YSSY (SYDNEY INTL AIRP, AU) observed 1300 UTC 23 January 2019
Temperature: 23.0°C (73°F)
Dewpoint: 19.0°C (66°F) [RH = 78%]
Pressure (altimeter): 29.97 inches Hg (1015.0 mb)
Winds: from the S (190 degrees) at 16 MPH (14 knots; 7.2 m/s)
Visibility: 6 or more miles (10+ km)
Ceiling: 2200 feet AGL
Clouds: few clouds at 1700 feet AGL
broken clouds at 2200 feet AGL
Weather: no significant weather observed at this time

METAR text: YSSY 231230Z 19016KT 9999 FEW017 BKN022 23/20 Q1015 NOSIG
Conditions at: YSSY (SYDNEY INTL AIRP, AU) observed 1230 UTC 23 January 2019
Temperature: 23.0°C (73°F)
Dewpoint: 20.0°C (68°F) [RH = 83%]
Pressure (altimeter): 29.97 inches Hg (1015.0 mb)
Winds: from the S (190 degrees) at 18 MPH (16 knots; 8.2 m/s)
Visibility: 6 or more miles (10+ km)
Ceiling: 2200 feet AGL
Clouds: few clouds at 1700 feet AGL
broken clouds at 2200 feet AGL
Weather: no significant weather observed at this time

METAR text: YSSY 231200Z 19019KT 9999 FEW018 BKN022 23/19 Q1015
Conditions at: YSSY (SYDNEY INTL AIRP, AU) observed 1200 UTC 23 January 2019
Temperature: 23.0°C (73°F)
Dewpoint: 19.0°C (66°F) [RH = 78%]
Pressure (altimeter): 29.97 inches Hg (1015.0 mb)
Winds: from the S (190 degrees) at 22 MPH (19 knots; 9.8 m/s)
Visibility: 6 or more miles (10+ km)
Ceiling: 2200 feet AGL
Clouds: few clouds at 1800 feet AGL
broken clouds at 2200 feet AGL
Weather: no significant weather observed at this time

METAR text: YSSY 231133Z 20017G27KT 9999 FEW017 BKN020 23/19 Q1015
Conditions at: YSSY (SYDNEY INTL AIRP, AU) observed 1133 UTC 23 January 2019
Temperature: 23.0°C (73°F)
Dewpoint: 19.0°C (66°F) [RH = 78%]
Pressure (altimeter): 29.97 inches Hg (1015.0 mb)
Winds: from the SSW (200 degrees) at 20 MPH (17 knots; 8.7 m/s)
gusting to 31 MPH (27 knots; 13.9 m/s)
Visibility: 6 or more miles (10+ km)
Ceiling: 2000 feet AGL
Clouds: few clouds at 1700 feet AGL
broken clouds at 2000 feet AGL
Weather: no significant weather observed at this time

METAR text: YSSY 231110Z 20017G27KT 9999 SCT017 BKN020 23/19 Q1015
Conditions at: YSSY (SYDNEY INTL AIRP, AU) observed 1110 UTC 23 January 2019
Temperature: 23.0°C (73°F)
Dewpoint: 19.0°C (66°F) [RH = 78%]
Pressure (altimeter): 29.97 inches Hg (1015.0 mb)
Winds: from the SSW (200 degrees) at 20 MPH (17 knots; 8.7 m/s)
gusting to 31 MPH (27 knots; 13.9 m/s)
Visibility: 6 or more miles (10+ km)
Ceiling: 2000 feet AGL
Clouds: scattered clouds at 1700 feet AGL
broken clouds at 2000 feet AGL
Weather: no significant weather observed at this time

METAR text: YSSY 231100Z 20019KT 9999 SCT017 BKN020 23/19 Q1015 NOSIG
Conditions at: YSSY (SYDNEY INTL AIRP, AU) observed 1100 UTC 23 January 2019
Temperature: 23.0°C (73°F)
Dewpoint: 19.0°C (66°F) [RH = 78%]
Pressure (altimeter): 29.97 inches Hg (1015.0 mb)
Winds: from the SSW (200 degrees) at 22 MPH (19 knots; 9.8 m/s)
Visibility: 6 or more miles (10+ km)
Ceiling: 2000 feet AGL
Clouds: scattered clouds at 1700 feet AGL
broken clouds at 2000 feet AGL
Weather: no significant weather observed at this time

METAR text: YSSY 231030Z 20020KT 9999 FEW016 OVC020 23/20 Q1015 NOSIG
Conditions at: YSSY (SYDNEY INTL AIRP, AU) observed 1030 UTC 23 January 2019
Temperature: 23.0°C (73°F)
Dewpoint: 20.0°C (68°F) [RH = 83%]
Pressure (altimeter): 29.97 inches Hg (1015.0 mb)
Winds: from the SSW (200 degrees) at 23 MPH (20 knots; 10.3 m/s)
Visibility: 6 or more miles (10+ km)
Ceiling: 2000 feet AGL
Clouds: few clouds at 1600 feet AGL
overcast cloud deck at 2000 feet AGL
Weather: no significant weather observed at this time

METAR text: YSSY 231000Z 20020KT 9999 SCT016 BKN020 23/19 Q1015 NOSIG
Conditions at: YSSY (SYDNEY INTL AIRP, AU) observed 1000 UTC 23 January 2019
Temperature: 23.0°C (73°F)
Dewpoint: 19.0°C (66°F) [RH = 78%]
Pressure (altimeter): 29.97 inches Hg (1015.0 mb)
Winds: from the SSW (200 degrees) at 23 MPH (20 knots; 10.3 m/s)
Visibility: 6 or more miles (10+ km)
Ceiling: 2000 feet AGL
Clouds: scattered clouds at 1600 feet AGL
broken clouds at 2000 feet AGL
Weather: no significant weather observed at this time

METAR text: YSSY 230930Z 20022KT 9999 SCT014 OVC020 23/20 Q1014 NOSIG
Conditions at: YSSY (SYDNEY INTL AIRP, AU) observed 0930 UTC 23 January 2019
Temperature: 23.0°C (73°F)
Dewpoint: 20.0°C (68°F) [RH = 83%]
Pressure (altimeter): 29.94 inches Hg (1014.0 mb)
Winds: from the SSW (200 degrees) at 25 MPH (22 knots; 11.3 m/s)
Visibility: 6 or more miles (10+ km)
Ceiling: 2000 feet AGL
Clouds: scattered clouds at 1400 feet AGL
overcast cloud deck at 2000 feet AGL
Weather: no significant weather observed at this time

METAR text: YSSY 230900Z 20021KT 9999 FEW015 SCT017 BKN020 23/20 Q1014 FM0900 MOD TURB BLW 5000FT TILL 0930
Conditions at: YSSY (SYDNEY INTL AIRP, AU) observed 0900 UTC 23 January 2019
Temperature: 23.0°C (73°F)
Dewpoint: 20.0°C (68°F) [RH = 83%]
Pressure (altimeter): 29.94 inches Hg (1014.0 mb)
Winds: from the SSW (200 degrees) at 24 MPH (21 knots; 10.8 m/s)
Visibility: 6 or more miles (10+ km)
Ceiling: 2000 feet AGL
Clouds: few clouds at 1500 feet AGL
scattered clouds at 1700 feet AGL
broken clouds at 2000 feet AGL
Weather: no significant weather observed at this time

METAR text: YSSY 230830Z 20021KT 9999 FEW015 SCT020 BKN035 23/20 Q1014 FM0800 MOD TURB BLW 5000FT TILL 1000
Conditions at: YSSY (SYDNEY INTL AIRP, AU) observed 0830 UTC 23 January 2019
Temperature: 23.0°C (73°F)
Dewpoint: 20.0°C (68°F) [RH = 83%]
Pressure (altimeter): 29.94 inches Hg (1014.0 mb)
Winds: from the SSW (200 degrees) at 24 MPH (21 knots; 10.8 m/s)
Visibility: 6 or more miles (10+ km)
Ceiling: 3500 feet AGL
Clouds: few clouds at 1500 feet AGL
scattered clouds at 2000 feet AGL
broken clouds at 3500 feet AGL
Weather: no significant weather observed at this time

METAR text: YSSY 230800Z 20023KT 9999 FEW015 SCT020 BKN032 23/20 Q1013 FM0800 MOD TURB BLW 5000FT
Conditions at: YSSY (SYDNEY INTL AIRP, AU) observed 0800 UTC 23 January 2019
Temperature: 23.0°C (73°F)
Dewpoint: 20.0°C (68°F) [RH = 83%]
Pressure (altimeter): 29.91 inches Hg (1013.0 mb)
Winds: from the SSW (200 degrees) at 26 MPH (23 knots; 11.8 m/s)
Visibility: 6 or more miles (10+ km)
Ceiling: 3200 feet AGL
Clouds: few clouds at 1500 feet AGL
scattered clouds at 2000 feet AGL
broken clouds at 3200 feet AGL
Weather: no significant weather observed at this time

METAR text: YSSY 230730Z 19023KT 9999 SCT017 BKN030 23/20 Q1013 FM0730 MOD TURB BLW 5000FT
Conditions at: YSSY (SYDNEY INTL AIRP, AU) observed 0730 UTC 23 January 2019
Temperature: 23.0°C (73°F)
Dewpoint: 20.0°C (68°F) [RH = 83%]
Pressure (altimeter): 29.91 inches Hg (1013.0 mb)
Winds: from the S (190 degrees) at 26 MPH (23 knots; 11.8 m/s)
Visibility: 6 or more miles (10+ km)
Ceiling: 3000 feet AGL
Clouds: scattered clouds at 1700 feet AGL
broken clouds at 3000 feet AGL
Weather: no significant weather observed at this time

METAR text: YSSY 230700Z 19024KT 9999 FEW014 SCT018 BKN030 23/20 Q1012 FM0700 MOD TURB BLW 5000FT
Conditions at: YSSY (SYDNEY INTL AIRP, AU) observed 0700 UTC 23 January 2019
Temperature: 23.0°C (73°F)
Dewpoint: 20.0°C (68°F) [RH = 83%]
Pressure (altimeter): 29.88 inches Hg (1012.0 mb)
Winds: from the S (190 degrees) at 28 MPH (24 knots; 12.3 m/s)
Visibility: 6 or more miles (10+ km)
Ceiling: 3000 feet AGL
Clouds: few clouds at 1400 feet AGL
scattered clouds at 1800 feet AGL
broken clouds at 3000 feet AGL
Weather: no significant weather observed at this time

METAR text: YSSY 230630Z 19025KT 9999 FEW015 SCT018 BKN270 24/20 Q1012 FM0630 MOD TURB BLW 5000FT
Conditions at: YSSY (SYDNEY INTL AIRP, AU) observed 0630 UTC 23 January 2019
Temperature: 24.0°C (75°F)
Dewpoint: 20.0°C (68°F) [RH = 78%]
Pressure (altimeter): 29.88 inches Hg (1012.0 mb)
Winds: from the S (190 degrees) at 29 MPH (25 knots; 12.9 m/s)
Visibility: 6 or more miles (10+ km)
Ceiling: 27000 feet AGL
Clouds: few clouds at 1500 feet AGL
scattered clouds at 1800 feet AGL
broken clouds at 27000 feet AGL
Weather: no significant weather observed at this time

METAR text: YSSY 230600Z 19026G37KT 9999 SCT015 BKN018 BKN025 24/21 Q1012 FM0600 MOD TURB BLW 5000FT
Conditions at: YSSY (SYDNEY INTL AIRP, AU) observed 0600 UTC 23 January 2019
Temperature: 24.0°C (75°F)
Dewpoint: 21.0°C (70°F) [RH = 83%]
Pressure (altimeter): 29.88 inches Hg (1012.0 mb)
Winds: from the S (190 degrees) at 30 MPH (26 knots; 13.4 m/s)
gusting to 43 MPH (37 knots; 19.0 m/s)
Visibility: 6 or more miles (10+ km)
Ceiling: 1800 feet AGL
Clouds: scattered clouds at 1500 feet AGL
broken clouds at 1800 feet AGL
broken clouds at 2500 feet AGL
Weather: no significant weather observed at this time

METAR text: YSSY 230530Z 19027G38KT 9999 SCT015 SCT120 BKN220 24/20 Q1011 FM0530 MOD TURB BLW 5000FT
Conditions at: YSSY (SYDNEY INTL AIRP, AU) observed 0530 UTC 23 January 2019
Temperature: 24.0°C (75°F)
Dewpoint: 20.0°C (68°F) [RH = 78%]
Pressure (altimeter): 29.85 inches Hg (1011.0 mb)
Winds: from the S (190 degrees) at 31 MPH (27 knots; 13.9 m/s)
gusting to 44 MPH (38 knots; 19.5 m/s)
Visibility: 6 or more miles (10+ km)
Ceiling: 22000 feet AGL
Clouds: scattered clouds at 1500 feet AGL
scattered clouds at 12000 feet AGL
broken clouds at 22000 feet AGL
Weather: no significant weather observed at this time

METAR text: YSSY 230500Z 19031G41KT 9999 FEW018 BKN220 24/20 Q1011 FM0500 MOD TURB BLW 5000FT
Conditions at: YSSY (SYDNEY INTL AIRP, AU) observed 0500 UTC 23 January 2019
Temperature: 24.0°C (75°F)
Dewpoint: 20.0°C (68°F) [RH = 78%]
Pressure (altimeter): 29.85 inches Hg (1011.0 mb)
Winds: from the S (190 degrees) at 36 MPH (31 knots; 15.9 m/s)
gusting to 47 MPH (41 knots; 21.1 m/s)
Visibility: 6 or more miles (10+ km)
Ceiling: 22000 feet AGL
Clouds: few clouds at 1800 feet AGL
broken clouds at 22000 feet AGL
Weather: no significant weather observed at this time

METAR text: YSSY 230430Z 19031G41KT 9999 FEW025 SCT220 FEW030CB 25/20 Q1011 FM0430 MOD TURB BLW 5000FT
Conditions at: YSSY (SYDNEY INTL AIRP, AU) observed 0430 UTC 23 January 2019
Temperature: 25.0°C (77°F)
Dewpoint: 20.0°C (68°F) [RH = 74%]
Pressure (altimeter): 29.85 inches Hg (1011.0 mb)
Winds: from the S (190 degrees) at 36 MPH (31 knots; 15.9 m/s)
gusting to 47 MPH (41 knots; 21.1 m/s)
Visibility: 6 or more miles (10+ km)
Ceiling: at least 12,000 feet AGL
Clouds: few clouds at 2500 feet AGL
scattered clouds at 22000 feet AGL
few clouds at 3000 feet AGL
Weather: no significant weather observed at this time

METAR text: YSSY 230400Z 19032G43KT 9999 FEW025 SCT250 FEW030CB 25/20 Q1010 FM0400 MOD TURB BLW 5000FT
Conditions at: YSSY (SYDNEY INTL AIRP, AU) observed 0400 UTC 23 January 2019
Temperature: 25.0°C (77°F)
Dewpoint: 20.0°C (68°F) [RH = 74%]
Pressure (altimeter): 29.82 inches Hg (1010.0 mb)
Winds: from the S (190 degrees) at 37 MPH (32 knots; 16.5 m/s)
gusting to 49 MPH (43 knots; 22.1 m/s)
Visibility: 6 or more miles (10+ km)
Ceiling: at least 12,000 feet AGL
Clouds: few clouds at 2500 feet AGL
scattered clouds at 25000 feet AGL
few clouds at 3000 feet AGL
Weather: no significant weather observed at this time

METAR text: YSSY 230330Z 19029G39KT 9999 FEW020 FEW030CB 26/19 Q1010
Conditions at: YSSY (SYDNEY INTL AIRP, AU) observed 0330 UTC 23 January 2019
Temperature: 26.0°C (79°F)
Dewpoint: 19.0°C (66°F) [RH = 65%]
Pressure (altimeter): 29.82 inches Hg (1010.0 mb)
Winds: from the S (190 degrees) at 33 MPH (29 knots; 14.9 m/s)
gusting to 45 MPH (39 knots; 20.1 m/s)
Visibility: 6 or more miles (10+ km)
Ceiling: at least 12,000 feet AGL
Clouds: few clouds at 2000 feet AGL
few clouds at 3000 feet AGL
Weather: no significant weather observed at this time

METAR text: YSSY 230300Z 18028G38KT 9999 FEW020 SCT250 FEW030CB 26/20 Q1010
Conditions at: YSSY (SYDNEY INTL AIRP, AU) observed 0300 UTC 23 January 2019
Temperature: 26.0°C (79°F)
Dewpoint: 20.0°C (68°F) [RH = 70%]
Pressure (altimeter): 29.82 inches Hg (1010.0 mb)
Winds: from the S (180 degrees) at 32 MPH (28 knots; 14.4 m/s)
gusting to 44 MPH (38 knots; 19.5 m/s)
Visibility: 6 or more miles (10+ km)
Ceiling: at least 12,000 feet AGL
Clouds: few clouds at 2000 feet AGL
scattered clouds at 25000 feet AGL
few clouds at 3000 feet AGL
Weather: no significant weather observed at this time

METAR text: YSSY 230230Z 18028G38KT 9999 FEW020 SCT250 FEW030CB 26/21 Q1011
Conditions at: YSSY (SYDNEY INTL AIRP, AU) observed 0230 UTC 23 January 2019
Temperature: 26.0°C (79°F)
Dewpoint: 21.0°C (70°F) [RH = 74%]
Pressure (altimeter): 29.85 inches Hg (1011.0 mb)
Winds: from the S (180 degrees) at 32 MPH (28 knots; 14.4 m/s)
gusting to 44 MPH (38 knots; 19.5 m/s)
Visibility: 6 or more miles (10+ km)
Ceiling: at least 12,000 feet AGL
Clouds: few clouds at 2000 feet AGL
scattered clouds at 25000 feet AGL
few clouds at 3000 feet AGL
Weather: no significant weather observed at this time

METAR text: YSSY 230220Z 19026G37KT 9999 FEW020CB SCT250 26/21 Q1011
Conditions at: YSSY (SYDNEY INTL AIRP, AU) observed 0220 UTC 23 January 2019
Temperature: 26.0°C (79°F)
Dewpoint: 21.0°C (70°F) [RH = 74%]
Pressure (altimeter): 29.85 inches Hg (1011.0 mb)
Winds: from the S (190 degrees) at 30 MPH (26 knots; 13.4 m/s)
gusting to 43 MPH (37 knots; 19.0 m/s)
Visibility: 6 or more miles (10+ km)
Ceiling: at least 12,000 feet AGL
Clouds: few clouds at 2000 feet AGL
scattered clouds at 25000 feet AGL
Weather: no significant weather observed at this time

METAR text: YSSY 230200Z 18020KT 9999 FEW020TCU SCT250 26/21 Q1011 FM0300 18020G30KT 9999 SCT015
Conditions at: YSSY (SYDNEY INTL AIRP, AU) observed 0200 UTC 23 January 2019
Temperature: 26.0°C (79°F)
Dewpoint: 21.0°C (70°F) [RH = 74%]
Pressure (altimeter): 29.85 inches Hg (1011.0 mb)
Winds: from the S (180 degrees) at 23 MPH (20 knots; 10.3 m/s)
Visibility: 6 or more miles (10+ km)
Ceiling: at least 12,000 feet AGL
Clouds: few clouds at 2000 feet AGL
scattered clouds at 25000 feet AGL
Weather: no significant weather observed at this time

METAR text: YSSY 230140Z 17016G26KT 9999 FEW020 SCT250 25/21 Q1011 FM0300 18020G30KT 9999 SCT015
Conditions at: YSSY (SYDNEY INTL AIRP, AU) observed 0140 UTC 23 January 2019
Temperature: 25.0°C (77°F)
Dewpoint: 21.0°C (70°F) [RH = 79%]
Pressure (altimeter): 29.85 inches Hg (1011.0 mb)
Winds: from the S (170 degrees) at 18 MPH (16 knots; 8.2 m/s)
gusting to 30 MPH (26 knots; 13.4 m/s)
Visibility: 6 or more miles (10+ km)
Ceiling: at least 12,000 feet AGL
Clouds: few clouds at 2000 feet AGL
scattered clouds at 25000 feet AGL
Weather: no significant weather observed at this time

METAR text: YSSY 230130Z 17017KT 9999 FEW020 SCT250 24/22 Q1011 FM0130 18020G30KT 9999 SCT015
Conditions at: YSSY (SYDNEY INTL AIRP, AU) observed 0130 UTC 23 January 2019
Temperature: 24.0°C (75°F)
Dewpoint: 22.0°C (72°F) [RH = 89%]
Pressure (altimeter): 29.85 inches Hg (1011.0 mb)
Winds: from the S (170 degrees) at 20 MPH (17 knots; 8.7 m/s)
Visibility: 6 or more miles (10+ km)
Ceiling: at least 12,000 feet AGL
Clouds: few clouds at 2000 feet AGL
scattered clouds at 25000 feet AGL
Weather: no significant weather observed at this time

METAR text: YSSY 230100Z 17019KT 9999 FEW030 SCT250 25/22 Q1011 FM0100 18020G30KT 9999 SCT015
Conditions at: YSSY (SYDNEY INTL AIRP, AU) observed 0100 UTC 23 January 2019
Temperature: 25.0°C (77°F)
Dewpoint: 22.0°C (72°F) [RH = 83%]
Pressure (altimeter): 29.85 inches Hg (1011.0 mb)
Winds: from the S (170 degrees) at 22 MPH (19 knots; 9.8 m/s)
Visibility: 6 or more miles (10+ km)
Ceiling: at least 12,000 feet AGL
Clouds: few clouds at 3000 feet AGL
scattered clouds at 25000 feet AGL
Weather: no significant weather observed at this time

METAR text: YSSY 230030Z 17017G27KT 9999 FEW020 SCT250 25/22 Q1011 FM0100 18020G30KT 9999 SCT015
Conditions at: YSSY (SYDNEY INTL AIRP, AU) observed 0030 UTC 23 January 2019
Temperature: 25.0°C (77°F)
Dewpoint: 22.0°C (72°F) [RH = 83%]
Pressure (altimeter): 29.85 inches Hg (1011.0 mb)
Winds: from the S (170 degrees) at 20 MPH (17 knots; 8.7 m/s)
gusting to 31 MPH (27 knots; 13.9 m/s)
Visibility: 6 or more miles (10+ km)
Ceiling: at least 12,000 feet AGL
Clouds: few clouds at 2000 feet AGL
scattered clouds at 25000 feet AGL
Weather: no significant weather observed at this time

METAR text: YSSY 230006Z 17015G27KT 9999 FEW018 SCT250 25/22 Q1011 FM0100 18020G30KT 9999 SCT020
Conditions at: YSSY (SYDNEY INTL AIRP, AU) observed 0006 UTC 23 January 2019
Temperature: 25.0°C (77°F)
Dewpoint: 22.0°C (72°F) [RH = 83%]
Pressure (altimeter): 29.85 inches Hg (1011.0 mb)
Winds: from the S (170 degrees) at 17 MPH (15 knots; 7.7 m/s)
gusting to 31 MPH (27 knots; 13.9 m/s)
Visibility: 6 or more miles (10+ km)
Ceiling: at least 12,000 feet AGL
Clouds: few clouds at 1800 feet AGL
scattered clouds at 25000 feet AGL
Weather: no significant weather observed at this time

METAR text: YSSY 230000Z 17013KT 9999 FEW030 SCT250 25/21 Q1011 FM0100 18020G30KT 9999 SCT020
Conditions at: YSSY (SYDNEY INTL AIRP, AU) observed 0000 UTC 23 January 2019
Temperature: 25.0°C (77°F)
Dewpoint: 21.0°C (70°F) [RH = 79%]
Pressure (altimeter): 29.85 inches Hg (1011.0 mb)
Winds: from the S (170 degrees) at 15 MPH (13 knots; 6.7 m/s)
Visibility: 6 or more miles (10+ km)
Ceiling: at least 12,000 feet AGL
Clouds: few clouds at 3000 feet AGL
scattered clouds at 25000 feet AGL
Weather: no significant weather observed at this time

METAR text: YSSY 222330Z 17014KT 9999 FEW030 SCT250 26/22 Q1011 FM0100 18020G30KT 9999 SCT020
Conditions at: YSSY (SYDNEY INTL AIRP, AU) observed 2330 UTC 22 January 2019
Temperature: 26.0°C (79°F)
Dewpoint: 22.0°C (72°F) [RH = 79%]
Pressure (altimeter): 29.85 inches Hg (1011.0 mb)
Winds: from the S (170 degrees) at 16 MPH (14 knots; 7.2 m/s)
Visibility: 6 or more miles (10+ km)
Ceiling: at least 12,000 feet AGL
Clouds: few clouds at 3000 feet AGL
scattered clouds at 25000 feet AGL
Weather: no significant weather observed at this time

METAR text: YSSY 222300Z 20007KT 9999 SCT030 SCT150 26/22 Q1010 FM0100 18020G30KT 9999 SCT020
Conditions at: YSSY (SYDNEY INTL AIRP, AU) observed 2300 UTC 22 January 2019
Temperature: 26.0°C (79°F)
Dewpoint: 22.0°C (72°F) [RH = 79%]
Pressure (altimeter): 29.82 inches Hg (1010.0 mb)
Winds: from the SSW (200 degrees) at 8 MPH (7 knots; 3.6 m/s)
Visibility: 6 or more miles (10+ km)
Ceiling: at least 12,000 feet AGL
Clouds: scattered clouds at 3000 feet AGL
scattered clouds at 15000 feet AGL
Weather: no significant weather observed at this time

METAR text: YSSY 222230Z 27008KT 9999 VCSH SCT025 BKN150 25/23 Q1010 FM0100 18020G30KT 9999 SCT020
Conditions at: YSSY (SYDNEY INTL AIRP, AU) observed 2230 UTC 22 January 2019
Temperature: 25.0°C (77°F)
Dewpoint: 23.0°C (73°F) [RH = 89%]
Pressure (altimeter): 29.82 inches Hg (1010.0 mb)
Winds: from the W (270 degrees) at 9 MPH (8 knots; 4.1 m/s)
Visibility: 6 or more miles (10+ km)
Ceiling: 15000 feet AGL
Clouds: scattered clouds at 2500 feet AGL
broken clouds at 15000 feet AGL
Weather: VCSH  (showers in vicinity)

METAR text: YSSY 222200Z 05003KT 9999 VCTS SCT025 SCT040 BKN100 FEW030CB 25/22 Q1010 RETS NOSIG
Conditions at: YSSY (SYDNEY INTL AIRP, AU) observed 2200 UTC 22 January 2019
Temperature: 25.0°C (77°F)
Dewpoint: 22.0°C (72°F) [RH = 83%]
Pressure (altimeter): 29.82 inches Hg (1010.0 mb)
Winds: from the NE (50 degrees) at 3 MPH (3 knots; 1.5 m/s)
Visibility: 6 or more miles (10+ km)
Ceiling: 10000 feet AGL
Clouds: scattered clouds at 2500 feet AGL
scattered clouds at 4000 feet AGL
broken clouds at 10000 feet AGL
few clouds at 3000 feet AGL
Weather: VCTS  (thunderstorm in vicinity)

METAR text: YSSY 222130Z 03007KT 360V070 9999 -TSRA FEW017 SCT025 BKN110 FEW030CB 25/23 Q1010 FM2145 VRB03KT 9999 -SHRA FEW020 SCT080
Conditions at: YSSY (SYDNEY INTL AIRP, AU) observed 2130 UTC 22 January 2019
Temperature: 25.0°C (77°F)
Dewpoint: 23.0°C (73°F) [RH = 89%]
Pressure (altimeter): 29.82 inches Hg (1010.0 mb)
Winds: from the NNE (30 degrees) at 8 MPH (7 knots; 3.6 m/s)
Visibility: 6 or more miles (10+ km)
Ceiling: 11000 feet AGL
Clouds: few clouds at 1700 feet AGL
scattered clouds at 2500 feet AGL
broken clouds at 11000 feet AGL
few clouds at 3000 feet AGL
Weather: -TSRA  (light rain associated with thunderstorm(s))

METAR text: YSSY 222100Z 20004KT 120V250 9000 -TSRA FEW017 SCT025 BKN110 FEW030CB 23/21 Q1010 RETS FM2130 VRB03KT 9999 -SHRA FEW020 SCT080
Conditions at: YSSY (SYDNEY INTL AIRP, AU) observed 2100 UTC 22 January 2019
Temperature: 23.0°C (73°F)
Dewpoint: 21.0°C (70°F) [RH = 89%]
Pressure (altimeter): 29.82 inches Hg (1010.0 mb)
Winds: from the SSW (200 degrees) at 5 MPH (4 knots; 2.1 m/s)
Visibility: 6 miles ( 9 km)
Ceiling: 11000 feet AGL
Clouds: few clouds at 1700 feet AGL
scattered clouds at 2500 feet AGL
broken clouds at 11000 feet AGL
few clouds at 3000 feet AGL
Weather: -TSRA  (light rain associated with thunderstorm(s))

METAR text: YSSY 222041Z 25005KT 210V270 9999 -TSRA FEW020 BKN110 FEW030CB 24/21 Q1010 FM2045 VRB03KT 9999 -SHRA FEW020 SCT080
Conditions at: YSSY (SYDNEY INTL AIRP, AU) observed 2041 UTC 22 January 2019
Temperature: 24.0°C (75°F)
Dewpoint: 21.0°C (70°F) [RH = 83%]
Pressure (altimeter): 29.82 inches Hg (1010.0 mb)
Winds: from the WSW (250 degrees) at 6 MPH (5 knots; 2.6 m/s)
Visibility: 6 or more miles (10+ km)
Ceiling: 11000 feet AGL
Clouds: few clouds at 2000 feet AGL
broken clouds at 11000 feet AGL
few clouds at 3000 feet AGL
Weather: -TSRA  (light rain associated with thunderstorm(s))

METAR text: YSSY 222030Z 28006KT 9999 TS FEW020 SCT110 BKN150 FEW030CB 25/20 Q1010 FM2045 01008KT 9999 -SHRA FEW020 SCT080
Conditions at: YSSY (SYDNEY INTL AIRP, AU) observed 2030 UTC 22 January 2019
Temperature: 25.0°C (77°F)
Dewpoint: 20.0°C (68°F) [RH = 74%]
Pressure (altimeter): 29.82 inches Hg (1010.0 mb)
Winds: from the W (280 degrees) at 7 MPH (6 knots; 3.1 m/s)
Visibility: 6 or more miles (10+ km)
Ceiling: 15000 feet AGL
Clouds: few clouds at 2000 feet AGL
scattered clouds at 11000 feet AGL
broken clouds at 15000 feet AGL
few clouds at 3000 feet AGL
Weather: TS  (thunderstorm)

METAR text: YSSY 222000Z 27003KT 9999 FEW030 BKN130 23/21 Q1009 FM2000 01008KT 9999 -SHRA FEW020 SCT080
Conditions at: YSSY (SYDNEY INTL AIRP, AU) observed 2000 UTC 22 January 2019
Temperature: 23.0°C (73°F)
Dewpoint: 21.0°C (70°F) [RH = 89%]
Pressure (altimeter): 29.79 inches Hg (1009.0 mb)
Winds: from the W (270 degrees) at 3 MPH (3 knots; 1.5 m/s)
Visibility: 6 or more miles (10+ km)
Ceiling: 13000 feet AGL
Clouds: few clouds at 3000 feet AGL
broken clouds at 13000 feet AGL
Weather: no significant weather observed at this time

METAR text: YSSY 221930Z 27004KT 9999 FEW030 SCT150 BKN250 23/21 Q1009 FM2000 01008KT 9999 -SHRA FEW020 SCT080
Conditions at: YSSY (SYDNEY INTL AIRP, AU) observed 1930 UTC 22 January 2019
Temperature: 23.0°C (73°F)
Dewpoint: 21.0°C (70°F) [RH = 89%]
Pressure (altimeter): 29.79 inches Hg (1009.0 mb)
Winds: from the W (270 degrees) at 5 MPH (4 knots; 2.1 m/s)
Visibility: 6 or more miles (10+ km)
Ceiling: 25000 feet AGL
Clouds: few clouds at 3000 feet AGL
scattered clouds at 15000 feet AGL
broken clouds at 25000 feet AGL
Weather: no significant weather observed at this time

METAR text: YSSY 221900Z 35001KT 9999 FEW030 SCT120 BKN250 23/21 Q1009 FM2000 01008KT 9999 -SHRA FEW020 SCT080
Conditions at: YSSY (SYDNEY INTL AIRP, AU) observed 1900 UTC 22 January 2019
Temperature: 23.0°C (73°F)
Dewpoint: 21.0°C (70°F) [RH = 89%]
Pressure (altimeter): 29.79 inches Hg (1009.0 mb)
Winds: from the N (350 degrees) at 1 MPH (1 knots; 0.5 m/s)
Visibility: 6 or more miles (10+ km)
Ceiling: 25000 feet AGL
Clouds: few clouds at 3000 feet AGL
scattered clouds at 12000 feet AGL
broken clouds at 25000 feet AGL
Weather: no significant weather observed at this time

METAR text: YSSY 221830Z 05009KT CAVOK 23/21 Q1009 FM2000 03008KT 9999 -SHRA FEW020 SCT080
Conditions at: YSSY (SYDNEY INTL AIRP, AU) observed 1830 UTC 22 January 2019
Temperature: 23.0°C (73°F)
Dewpoint: 21.0°C (70°F) [RH = 89%]
Pressure (altimeter): 29.79 inches Hg (1009.0 mb)
Winds: from the NE (50 degrees) at 10 MPH (9 knots; 4.6 m/s)
Visibility: 6 or more miles (10+ km)
Ceiling: ceiling and visibility are OK
Clouds: unknown
Weather: no significant weather observed at this time

METAR text: YSSY 221800Z 01006KT CAVOK 24/21 Q1009
Conditions at: YSSY (SYDNEY INTL AIRP, AU) observed 1800 UTC 22 January 2019
Temperature: 24.0°C (75°F)
Dewpoint: 21.0°C (70°F) [RH = 83%]
Pressure (altimeter): 29.79 inches Hg (1009.0 mb)
Winds: from the N (10 degrees) at 7 MPH (6 knots; 3.1 m/s)
Visibility: 6 or more miles (10+ km)
Ceiling: ceiling and visibility are OK
Clouds: unknown
Weather: no significant weather observed at this time

METAR text: YSSY 221730Z 03007KT CAVOK 24/21 Q1009 NOSIG
Conditions at: YSSY (SYDNEY INTL AIRP, AU) observed 1730 UTC 22 January 2019
Temperature: 24.0°C (75°F)
Dewpoint: 21.0°C (70°F) [RH = 83%]
Pressure (altimeter): 29.79 inches Hg (1009.0 mb)
Winds: from the NNE (30 degrees) at 8 MPH (7 knots; 3.6 m/s)
Visibility: 6 or more miles (10+ km)
Ceiling: ceiling and visibility are OK
Clouds: unknown
Weather: no significant weather observed at this time

METAR text: YSSY 221700Z 35004KT CAVOK 23/21 Q1009
Conditions at: YSSY (SYDNEY INTL AIRP, AU) observed 1700 UTC 22 January 2019
Temperature: 23.0°C (73°F)
Dewpoint: 21.0°C (70°F) [RH = 89%]
Pressure (altimeter): 29.79 inches Hg (1009.0 mb)
Winds: from the N (350 degrees) at 5 MPH (4 knots; 2.1 m/s)
Visibility: 6 or more miles (10+ km)
Ceiling: ceiling and visibility are OK
Clouds: unknown
Weather: no significant weather observed at this time

METAR text: YSSY 221630Z 04004KT CAVOK 23/21 Q1010 NOSIG
Conditions at: YSSY (SYDNEY INTL AIRP, AU) observed 1630 UTC 22 January 2019
Temperature: 23.0°C (73°F)
Dewpoint: 21.0°C (70°F) [RH = 89%]
Pressure (altimeter): 29.82 inches Hg (1010.0 mb)
Winds: from the NE (40 degrees) at 5 MPH (4 knots; 2.1 m/s)
Visibility: 6 or more miles (10+ km)
Ceiling: ceiling and visibility are OK
Clouds: unknown
Weather: no significant weather observed at this time

METAR text: YSSY 221600Z 06003KT CAVOK 23/21 Q1010 NOSIG
Conditions at: YSSY (SYDNEY INTL AIRP, AU) observed 1600 UTC 22 January 2019
Temperature: 23.0°C (73°F)
Dewpoint: 21.0°C (70°F) [RH = 89%]
Pressure (altimeter): 29.82 inches Hg (1010.0 mb)
Winds: from the ENE (60 degrees) at 3 MPH (3 knots; 1.5 m/s)
Visibility: 6 or more miles (10+ km)
Ceiling: ceiling and visibility are OK
Clouds: unknown
Weather: no significant weather observed at this time

METAR text: YSSY 221530Z 07003KT CAVOK 23/21 Q1010 NOSIG
Conditions at: YSSY (SYDNEY INTL AIRP, AU) observed 1530 UTC 22 January 2019
Temperature: 23.0°C (73°F)
Dewpoint: 21.0°C (70°F) [RH = 89%]
Pressure (altimeter): 29.82 inches Hg (1010.0 mb)
Winds: from the ENE (70 degrees) at 3 MPH (3 knots; 1.5 m/s)
Visibility: 6 or more miles (10+ km)
Ceiling: ceiling and visibility are OK
Clouds: unknown
Weather: no significant weather observed at this time

METAR text: YSSY 221500Z 05004KT CAVOK 23/21 Q1010 NOSIG
Conditions at: YSSY (SYDNEY INTL AIRP, AU) observed 1500 UTC 22 January 2019
Temperature: 23.0°C (73°F)
Dewpoint: 21.0°C (70°F) [RH = 89%]
Pressure (altimeter): 29.82 inches Hg (1010.0 mb)
Winds: from the NE (50 degrees) at 5 MPH (4 knots; 2.1 m/s)
Visibility: 6 or more miles (10+ km)
Ceiling: ceiling and visibility are OK
Clouds: unknown
Weather: no significant weather observed at this time

METAR text: YSSY 221430Z 05005KT CAVOK 23/21 Q1010 NOSIG
Conditions at: YSSY (SYDNEY INTL AIRP, AU) observed 1430 UTC 22 January 2019
Temperature: 23.0°C (73°F)
Dewpoint: 21.0°C (70°F) [RH = 89%]
Pressure (altimeter): 29.82 inches Hg (1010.0 mb)
Winds: from the NE (50 degrees) at 6 MPH (5 knots; 2.6 m/s)
Visibility: 6 or more miles (10+ km)
Ceiling: ceiling and visibility are OK
Clouds: unknown
Weather: no significant weather observed at this time

METAR text: YSSY 221400Z 05005KT CAVOK 23/21 Q1011 NOSIG
Conditions at: YSSY (SYDNEY INTL AIRP, AU) observed 1400 UTC 22 January 2019
Temperature: 23.0°C (73°F)
Dewpoint: 21.0°C (70°F) [RH = 89%]
Pressure (altimeter): 29.85 inches Hg (1011.0 mb)
Winds: from the NE (50 degrees) at 6 MPH (5 knots; 2.6 m/s)
Visibility: 6 or more miles (10+ km)
Ceiling: ceiling and visibility are OK
Clouds: unknown
Weather: no significant weather observed at this time

METAR text: YSSY 221330Z 04004KT CAVOK 23/21 Q1011 NOSIG
Conditions at: YSSY (SYDNEY INTL AIRP, AU) observed 1330 UTC 22 January 2019
Temperature: 23.0°C (73°F)
Dewpoint: 21.0°C (70°F) [RH = 89%]
Pressure (altimeter): 29.85 inches Hg (1011.0 mb)
Winds: from the NE (40 degrees) at 5 MPH (4 knots; 2.1 m/s)
Visibility: 6 or more miles (10+ km)
Ceiling: ceiling and visibility are OK
Clouds: unknown
Weather: no significant weather observed at this time

METAR text: YSSY 221300Z 03007KT CAVOK 24/21 Q1011
Conditions at: YSSY (SYDNEY INTL AIRP, AU) observed 1300 UTC 22 January 2019
Temperature: 24.0°C (75°F)
Dewpoint: 21.0°C (70°F) [RH = 83%]
Pressure (altimeter): 29.85 inches Hg (1011.0 mb)
Winds: from the NNE (30 degrees) at 8 MPH (7 knots; 3.6 m/s)
Visibility: 6 or more miles (10+ km)
Ceiling: ceiling and visibility are OK
Clouds: unknown
Weather: no significant weather observed at this time

METAR text: YSSY 221230Z 04007KT CAVOK 25/21 Q1011 NOSIG
Conditions at: YSSY (SYDNEY INTL AIRP, AU) observed 1230 UTC 22 January 2019
Temperature: 25.0°C (77°F)
Dewpoint: 21.0°C (70°F) [RH = 79%]
Pressure (altimeter): 29.85 inches Hg (1011.0 mb)
Winds: from the NE (40 degrees) at 8 MPH (7 knots; 3.6 m/s)
Visibility: 6 or more miles (10+ km)
Ceiling: ceiling and visibility are OK
Clouds: unknown
Weather: no significant weather observed at this time

METAR text: YSSY 221200Z 02007KT CAVOK 25/21 Q1011
Conditions at: YSSY (SYDNEY INTL AIRP, AU) observed 1200 UTC 22 January 2019
Temperature: 25.0°C (77°F)
Dewpoint: 21.0°C (70°F) [RH = 79%]
Pressure (altimeter): 29.85 inches Hg (1011.0 mb)
Winds: from the NNE (20 degrees) at 8 MPH (7 knots; 3.6 m/s)
Visibility: 6 or more miles (10+ km)
Ceiling: ceiling and visibility are OK
Clouds: unknown
Weather: no significant weather observed at this time

METAR text: YSSY 221130Z 03008KT CAVOK 25/20 Q1011 NOSIG
Conditions at: YSSY (SYDNEY INTL AIRP, AU) observed 1130 UTC 22 January 2019
Temperature: 25.0°C (77°F)
Dewpoint: 20.0°C (68°F) [RH = 74%]
Pressure (altimeter): 29.85 inches Hg (1011.0 mb)
Winds: from the NNE (30 degrees) at 9 MPH (8 knots; 4.1 m/s)
Visibility: 6 or more miles (10+ km)
Ceiling: ceiling and visibility are OK
Clouds: unknown
Weather: no significant weather observed at this time

METAR text: YSSY 221100Z 03011KT CAVOK 26/21 Q1011 NOSIG
Conditions at: YSSY (SYDNEY INTL AIRP, AU) observed 1100 UTC 22 January 2019
Temperature: 26.0°C (79°F)
Dewpoint: 21.0°C (70°F) [RH = 74%]
Pressure (altimeter): 29.85 inches Hg (1011.0 mb)
Winds: from the NNE (30 degrees) at 13 MPH (11 knots; 5.7 m/s)
Visibility: 6 or more miles (10+ km)
Ceiling: ceiling and visibility are OK
Clouds: unknown
Weather: no significant weather observed at this time

METAR text: YSSY 221030Z 03015KT CAVOK 26/21 Q1011 NOSIG
Conditions at: YSSY (SYDNEY INTL AIRP, AU) observed 1030 UTC 22 January 2019
Temperature: 26.0°C (79°F)
Dewpoint: 21.0°C (70°F) [RH = 74%]
Pressure (altimeter): 29.85 inches Hg (1011.0 mb)
Winds: from the NNE (30 degrees) at 17 MPH (15 knots; 7.7 m/s)
Visibility: 6 or more miles (10+ km)
Ceiling: ceiling and visibility are OK
Clouds: unknown
Weather: no significant weather observed at this time

METAR text: YSSY 221000Z 03016KT CAVOK 26/20 Q1011 NOSIG
Conditions at: YSSY (SYDNEY INTL AIRP, AU) observed 1000 UTC 22 January 2019
Temperature: 26.0°C (79°F)
Dewpoint: 20.0°C (68°F) [RH = 70%]
Pressure (altimeter): 29.85 inches Hg (1011.0 mb)
Winds: from the NNE (30 degrees) at 18 MPH (16 knots; 8.2 m/s)
Visibility: 6 or more miles (10+ km)
Ceiling: ceiling and visibility are OK
Clouds: unknown
Weather: no significant weather observed at this time

METAR text: YSSY 220930Z 04017KT CAVOK 27/21 Q1011 NOSIG
Conditions at: YSSY (SYDNEY INTL AIRP, AU) observed 0930 UTC 22 January 2019
Temperature: 27.0°C (81°F)
Dewpoint: 21.0°C (70°F) [RH = 70%]
Pressure (altimeter): 29.85 inches Hg (1011.0 mb)
Winds: from the NE (40 degrees) at 20 MPH (17 knots; 8.7 m/s)
Visibility: 6 or more miles (10+ km)
Ceiling: ceiling and visibility are OK
Clouds: unknown
Weather: no significant weather observed at this time

METAR text: YSSY 220900Z 03016KT CAVOK 27/20 Q1011 NOSIG
Conditions at: YSSY (SYDNEY INTL AIRP, AU) observed 0900 UTC 22 January 2019
Temperature: 27.0°C (81°F)
Dewpoint: 20.0°C (68°F) [RH = 66%]
Pressure (altimeter): 29.85 inches Hg (1011.0 mb)
Winds: from the NNE (30 degrees) at 18 MPH (16 knots; 8.2 m/s)
Visibility: 6 or more miles (10+ km)
Ceiling: ceiling and visibility are OK
Clouds: unknown
Weather: no significant weather observed at this time

METAR text: YSSY 220830Z 03017KT CAVOK 28/21 Q1011 NOSIG
Conditions at: YSSY (SYDNEY INTL AIRP, AU) observed 0830 UTC 22 January 2019
Temperature: 28.0°C (82°F)
Dewpoint: 21.0°C (70°F) [RH = 66%]
Pressure (altimeter): 29.85 inches Hg (1011.0 mb)
Winds: from the NNE (30 degrees) at 20 MPH (17 knots; 8.7 m/s)
Visibility: 6 or more miles (10+ km)
Ceiling: ceiling and visibility are OK
Clouds: unknown
Weather: no significant weather observed at this time

METAR text: YSSY 220800Z 03021KT CAVOK 28/21 Q1011 NOSIG
Conditions at: YSSY (SYDNEY INTL AIRP, AU) observed 0800 UTC 22 January 2019
Temperature: 28.0°C (82°F)
Dewpoint: 21.0°C (70°F) [RH = 66%]
Pressure (altimeter): 29.85 inches Hg (1011.0 mb)
Winds: from the NNE (30 degrees) at 24 MPH (21 knots; 10.8 m/s)
Visibility: 6 or more miles (10+ km)
Ceiling: ceiling and visibility are OK
Clouds: unknown
Weather: no significant weather observed at this time

METAR text: YSSY 220730Z 04019KT CAVOK 29/21 Q1011 NOSIG
Conditions at: YSSY (SYDNEY INTL AIRP, AU) observed 0730 UTC 22 January 2019
Temperature: 29.0°C (84°F)
Dewpoint: 21.0°C (70°F) [RH = 62%]
Pressure (altimeter): 29.85 inches Hg (1011.0 mb)
Winds: from the NE (40 degrees) at 22 MPH (19 knots; 9.8 m/s)
Visibility: 6 or more miles (10+ km)
Ceiling: ceiling and visibility are OK
Clouds: unknown
Weather: no significant weather observed at this time

METAR text: YSSY 220700Z 05020KT CAVOK 29/20 Q1010 NOSIG
Conditions at: YSSY (SYDNEY INTL AIRP, AU) observed 0700 UTC 22 January 2019
Temperature: 29.0°C (84°F)
Dewpoint: 20.0°C (68°F) [RH = 58%]
Pressure (altimeter): 29.82 inches Hg (1010.0 mb)
Winds: from the NE (50 degrees) at 23 MPH (20 knots; 10.3 m/s)
Visibility: 6 or more miles (10+ km)
Ceiling: ceiling and visibility are OK
Clouds: unknown
Weather: no significant weather observed at this time

METAR text: YSSY 220630Z 04017KT CAVOK 31/20 Q1011 NOSIG
Conditions at: YSSY (SYDNEY INTL AIRP, AU) observed 0630 UTC 22 January 2019
Temperature: 31.0°C (88°F)
Dewpoint: 20.0°C (68°F) [RH = 52%]
Pressure (altimeter): 29.85 inches Hg (1011.0 mb)
Winds: from the NE (40 degrees) at 20 MPH (17 knots; 8.7 m/s)
Visibility: 6 or more miles (10+ km)
Ceiling: ceiling and visibility are OK
Clouds: unknown
Weather: no significant weather observed at this time

METAR text: YSSY 220600Z 05018KT CAVOK 30/20 Q1011 NOSIG
Conditions at: YSSY (SYDNEY INTL AIRP, AU) observed 0600 UTC 22 January 2019
Temperature: 30.0°C (86°F)
Dewpoint: 20.0°C (68°F) [RH = 55%]
Pressure (altimeter): 29.85 inches Hg (1011.0 mb)
Winds: from the NE (50 degrees) at 21 MPH (18 knots; 9.3 m/s)
Visibility: 6 or more miles (10+ km)
Ceiling: ceiling and visibility are OK
Clouds: unknown
Weather: no significant weather observed at this time

METAR text: YSSY 220530Z 05018KT CAVOK 31/20 Q1011 NOSIG
Conditions at: YSSY (SYDNEY INTL AIRP, AU) observed 0530 UTC 22 January 2019
Temperature: 31.0°C (88°F)
Dewpoint: 20.0°C (68°F) [RH = 52%]
Pressure (altimeter): 29.85 inches Hg (1011.0 mb)
Winds: from the NE (50 degrees) at 21 MPH (18 knots; 9.3 m/s)
Visibility: 6 or more miles (10+ km)
Ceiling: ceiling and visibility are OK
Clouds: unknown
Weather: no significant weather observed at this time

METAR text: YSSY 220500Z 04017KT CAVOK 32/21 Q1011 NOSIG
Conditions at: YSSY (SYDNEY INTL AIRP, AU) observed 0500 UTC 22 January 2019
Temperature: 32.0°C (90°F)
Dewpoint: 21.0°C (70°F) [RH = 52%]
Pressure (altimeter): 29.85 inches Hg (1011.0 mb)
Winds: from the NE (40 degrees) at 20 MPH (17 knots; 8.7 m/s)
Visibility: 6 or more miles (10+ km)
Ceiling: ceiling and visibility are OK
Clouds: unknown
Weather: no significant weather observed at this time

METAR text: YSSY 220430Z 06015KT CAVOK 32/21 Q1012 NOSIG
Conditions at: YSSY (SYDNEY INTL AIRP, AU) observed 0430 UTC 22 January 2019
Temperature: 32.0°C (90°F)
Dewpoint: 21.0°C (70°F) [RH = 52%]
Pressure (altimeter): 29.88 inches Hg (1012.0 mb)
Winds: from the ENE (60 degrees) at 17 MPH (15 knots; 7.7 m/s)
Visibility: 6 or more miles (10+ km)
Ceiling: ceiling and visibility are OK
Clouds: unknown
Weather: no significant weather observed at this time

METAR text: YSSY 220400Z 07016KT CAVOK 32/21 Q1012 NOSIG
Conditions at: YSSY (SYDNEY INTL AIRP, AU) observed 0400 UTC 22 January 2019
Temperature: 32.0°C (90°F)
Dewpoint: 21.0°C (70°F) [RH = 52%]
Pressure (altimeter): 29.88 inches Hg (1012.0 mb)
Winds: from the ENE (70 degrees) at 18 MPH (16 knots; 8.2 m/s)
Visibility: 6 or more miles (10+ km)
Ceiling: ceiling and visibility are OK
Clouds: unknown
Weather: no significant weather observed at this time

METAR text: YSSY 220330Z 06016KT CAVOK 30/21 Q1012 NOSIG
Conditions at: YSSY (SYDNEY INTL AIRP, AU) observed 0330 UTC 22 January 2019
Temperature: 30.0°C (86°F)
Dewpoint: 21.0°C (70°F) [RH = 59%]
Pressure (altimeter): 29.88 inches Hg (1012.0 mb)
Winds: from the ENE (60 degrees) at 18 MPH (16 knots; 8.2 m/s)
Visibility: 6 or more miles (10+ km)
Ceiling: ceiling and visibility are OK
Clouds: unknown
Weather: no significant weather observed at this time

METAR text: YSSY 220300Z 06016KT CAVOK 31/21 Q1012 NOSIG
Conditions at: YSSY (SYDNEY INTL AIRP, AU) observed 0300 UTC 22 January 2019
Temperature: 31.0°C (88°F)
Dewpoint: 21.0°C (70°F) [RH = 55%]
Pressure (altimeter): 29.88 inches Hg (1012.0 mb)
Winds: from the ENE (60 degrees) at 18 MPH (16 knots; 8.2 m/s)
Visibility: 6 or more miles (10+ km)
Ceiling: ceiling and visibility are OK
Clouds: unknown
Weather: no significant weather observed at this time

METAR text: YSSY 220230Z 07017KT CAVOK 31/21 Q1013 NOSIG
Conditions at: YSSY (SYDNEY INTL AIRP, AU) observed 0230 UTC 22 January 2019
Temperature: 31.0°C (88°F)
Dewpoint: 21.0°C (70°F) [RH = 55%]
Pressure (altimeter): 29.91 inches Hg (1013.0 mb)
Winds: from the ENE (70 degrees) at 20 MPH (17 knots; 8.7 m/s)
Visibility: 6 or more miles (10+ km)
Ceiling: ceiling and visibility are OK
Clouds: unknown
Weather: no significant weather observed at this time

METAR text: YSSY 220200Z 07014KT CAVOK 32/21 Q1013 NOSIG
Conditions at: YSSY (SYDNEY INTL AIRP, AU) observed 0200 UTC 22 January 2019
Temperature: 32.0°C (90°F)
Dewpoint: 21.0°C (70°F) [RH = 52%]
Pressure (altimeter): 29.91 inches Hg (1013.0 mb)
Winds: from the ENE (70 degrees) at 16 MPH (14 knots; 7.2 m/s)
Visibility: 6 or more miles (10+ km)
Ceiling: ceiling and visibility are OK
Clouds: unknown
Weather: no significant weather observed at this time

Forecast for: AMD
Text: TAF AMD YSSY 231338Z 2313/2418 21012KT 9999 -DZ SCT010 BKN020
Forecast period: 1300 to 2300 UTC 23 January 2019
Forecast type: FROM: standard forecast or significant change
Winds: from the SSW (210 degrees) at 14 MPH (12 knots; 6.2 m/s)
Visibility: 6 or more miles 10+ km)
Ceiling: 2000 feet AGL
Clouds: scattered clouds at 1000 feet AGL
broken clouds at 2000 feet AGL
Weather: -DZ  (light drizzle)
Text: FM232300 17015KT 9999 -DZ SCT015 BKN025
Forecast period: 2300 UTC 23 January 2019 to 1000 UTC 24 January 2019
Forecast type: FROM: standard forecast or significant change
Winds: from the S (170 degrees) at 17 MPH (15 knots; 7.7 m/s)
Visibility: 6 or more miles 10+ km)
Ceiling: 2500 feet AGL
Clouds: scattered clouds at 1500 feet AGL
broken clouds at 2500 feet AGL
Weather: -DZ  (light drizzle)
Text: FM241000 20010KT 9999 -DZ SCT010 BKN020
Forecast period: 1000 to 1600 UTC 24 January 2019
Forecast type: FROM: standard forecast or significant change
Winds: from the SSW (200 degrees) at 12 MPH (10 knots; 5.1 m/s)
Visibility: 6 or more miles 10+ km)
Ceiling: 2000 feet AGL
Clouds: scattered clouds at 1000 feet AGL
broken clouds at 2000 feet AGL
Weather: -DZ  (light drizzle)
Text: FM241600 32005KT 9999 SCT010 INTER 2316/2324 5000 -DZ BKN008
Forecast period: 1600 to 1800 UTC 24 January 2019
Forecast type: FROM: standard forecast or significant change
Winds: from the NW (320 degrees) at 6 MPH (5 knots; 2.6 m/s)
Visibility: 6 or more miles 10+ km)
Ceiling: at least 12,000 feet AGL
Clouds: scattered clouds at 1000 feet AGL
Weather: no significant weather forecast for this period
Text:
Forecast period: 1600 UTC 23 January 2019 to 0000 UTC 24 January 2019
Forecast type: TEMPORARY: The following changes expected for less than half the time period
Visibility: 3 miles (5 km)
Ceiling: 800 feet AGL
Clouds: broken clouds at 800 feet AGL
Weather: -DZ  (light drizzle)